tititudorancea.com
Station Historical Data
Daily Summary for June 6, 2018 Units:  Metric    English   Both
« Previous Day
Next Day »
Daily Weekly Monthly Yearly Custom
  High: Low: Average:
Temperature: -17.8 °C 0.9 °C 10.2 °C
Dew Point: -17.8 °C 0.1 °C 5.6 °C
Humidity: Humidity % 55 % 74 %
Wind Speed: 0 km/h 0 km/h 11.7 km/h
Wind Gust: 0 km/h - -
Wind:- - NE
Pressure: 0 hPa 1023.6 hPa -
Precipitation: 0.25 mm    
Historical Graphs
 
 
Ararat weather Find more about Weather in Ararat, AU


 



 


Tabular Data for June 6, 2018
Time Temperature Dew Point Pressure Wind Wind Speed Wind Gust Humidity Rainfall Rate (Hourly)
-17.8 °C -17.8 °C 0 hPa Calm     Humidity % 0 mm
00:04 4.4 °C 3.4 °C 1028.3 hPa Calm     93 % 0 mm
00:09 4.3 °C 3.3 °C 1028.3 hPa Calm     93 % 0 mm
00:14 4.2 °C 3.1 °C 1028.3 hPa Calm     93 % 0 mm
00:19 4.1 °C 3.1 °C 1028.3 hPa Calm     93 % 0 mm
00:24 4 °C 2.9 °C 1028.3 hPa Calm     93 % 0 mm
00:29 3.9 °C 2.8 °C 1028.3 hPa Calm     93 % 0 mm
00:34 3.8 °C 2.8 °C 1028.3 hPa Calm     93 % 0 mm
00:39 3.6 °C 2.4 °C 1028.3 hPa Calm     92 % 0 mm
00:44 3.5 °C 2.5 °C 1028.3 hPa Calm     93 % 0 mm
00:49 3.4 °C 2.4 °C 1028.3 hPa Calm     93 % 0 mm
00:54 3.3 °C 2.3 °C 1028.3 hPa Calm     93 % 0 mm
00:59 3.2 °C 2.2 °C 1028.3 hPa Calm     93 % 0 mm
01:04 3.1 °C 2.1 °C 1028.3 hPa Calm     93 % 0 mm
01:09 2.9 °C 1.9 °C 1028.3 hPa Calm     93 % 0 mm
01:14 2.8 °C 1.8 °C 1028.3 hPa Calm     93 % 0 mm
01:19 2.7 °C 1.7 °C 1028.3 hPa Calm     93 % 0 mm
01:24 2.6 °C 1.6 °C 1028.3 hPa Calm     93 % 0 mm
01:29 2.5 °C 1.5 °C 1028.3 hPa Calm     93 % 0 mm
01:34 2.4 °C 1.6 °C 1028.3 hPa Calm     94 % 0 mm
01:39 2.4 °C 1.4 °C 1028.3 hPa Calm     93 % 0 mm
01:44 2.3 °C 1.3 °C 1028.3 hPa SE 1.6 km/h 0.8 km/h 93 % 0 mm
01:49 2.2 °C 1.2 °C 1028.3 hPa Calm     93 % 0 mm
01:54 2.1 °C 1.1 °C 1028.3 hPa Calm     93 % 0 mm
01:59 2 °C 1 °C 1028.3 hPa Calm     93 % 0 mm
02:04 2 °C 1.1 °C 1028.3 hPa Calm     94 % 0 mm
02:09 2 °C 1.1 °C 1028.3 hPa Calm     94 % 0 mm
02:14 2 °C 1.1 °C 1028.3 hPa Calm     94 % 0 mm
02:19 2 °C 1.1 °C 1028.3 hPa Calm     94 % 0 mm
02:24 1.9 °C 1 °C 1028.3 hPa Calm     94 % 0 mm
02:29 1.8 °C 0.9 °C 1028.3 hPa Calm     94 % 0 mm
02:34 1.7 °C 0.8 °C 1028 hPa Calm     94 % 0 mm
02:39 1.7 °C 0.8 °C 1028 hPa Calm     94 % 0 mm
02:44 1.7 °C 0.8 °C 1028 hPa Calm     94 % 0 mm
02:49 1.6 °C 0.7 °C 1028 hPa Calm     94 % 0 mm
02:54 1.4 °C 0.4 °C 1028 hPa Calm     93 % 0 mm
02:59 1.3 °C 0.5 °C 1028 hPa Calm     94 % 0 mm
03:04 1.3 °C 0.4 °C 1028 hPa Calm     94 % 0 mm
03:09 1.3 °C 0.4 °C 1028 hPa Calm     94 % 0 mm
03:14 1.2 °C 0.3 °C 1028 hPa Calm     94 % 0 mm
03:19 1.1 °C 0.3 °C 1028 hPa Calm     94 % 0 mm
03:24 1 °C 0.2 °C 1028 hPa Calm     94 % 0 mm
03:29 1 °C 0.2 °C 1028 hPa Calm     94 % 0 mm
03:34 0.9 °C 0.1 °C 1028 hPa Calm     94 % 0 mm
03:39 0.9 °C 0.1 °C 1028 hPa Calm     94 % 0 mm
03:40 0.9 °C 0.1 °C 1028 hPa Calm     94 % 0 mm
07:34 4.2 °C 3.5 °C 1028.7 hPa SE 3.7 km/h 2.7 km/h 95 % 0 mm
07:39 4.2 °C 3.4 °C 1028.7 hPa SE 3.7 km/h 2.3 km/h 95 % 0 mm
07:44 4.3 °C 3.6 °C 1028.7 hPa SE 3.2 km/h 0.6 km/h 95 % 0 mm
07:49 4.2 °C 3.4 °C 1028.7 hPa SE 5.6 km/h 4.3 km/h 95 % 0 mm
07:54 4.3 °C 3.6 °C 1028.7 hPa SE 5.6 km/h 2.9 km/h 95 % 0 mm
07:59 4.4 °C 3.8 °C 1028.7 hPa Calm     96 % 0 mm
08:04 4.5 °C 3.9 °C 1028.7 hPa Calm     96 % 0 mm
08:09 4.5 °C 3.9 °C 1028.7 hPa Calm     96 % 0 mm
08:14 4.6 °C 4.1 °C 1028.7 hPa SE 3.7 km/h 3.2 km/h 96 % 0 mm
08:19 4.8 °C 4.2 °C 1028.7 hPa SE 1.9 km/h 1.6 km/h 96 % 0 mm
08:24 5.1 °C 4.5 °C 1028.7 hPa SE 3.7 km/h 1 km/h 96 % 0 mm
08:29 5.3 °C 4.7 °C 1028.7 hPa SE 1.9 km/h   96 % 0 mm
08:34 5.6 °C 4.9 °C 1028.7 hPa Calm     96 % 0 mm
08:39 5.8 °C 5.2 °C 1028.7 hPa Calm     96 % 0 mm
08:42 5.9 °C 5.3 °C 1028.7 hPa Calm     96 % 0 mm
08:49 6.4 °C 5.8 °C 1028.7 hPa SE 3.7 km/h 2.9 km/h 96 % 0 mm
08:54 6.7 °C 6.1 °C 1028.7 hPa SE 5.6 km/h 1.6 km/h 96 % 0 mm
08:59 6.9 °C 6.3 °C 1028.7 hPa SE 3.7 km/h 0.2 km/h 96 % 0 mm
09:04 7.3 °C 6.7 °C 1028.7 hPa SE 3.7 km/h 1 km/h 96 % 0 mm
09:09 7.6 °C 7 °C 1028.7 hPa SE 5.6 km/h 4.2 km/h 96 % 0 mm
09:14 7.8 °C 7 °C 1028.3 hPa SE 1.9 km/h 1.4 km/h 95 % 0 mm
09:19 8.2 °C 7.4 °C 1028.7 hPa SE 6.4 km/h 3.9 km/h 95 % 0 mm
09:24 8.6 °C 7.7 °C 1028.7 hPa SE 1.9 km/h 0.2 km/h 94 % 0 mm
09:29 8.9 °C 7.7 °C 1028.7 hPa SE 9.3 km/h 5.5 km/h 92 % 0 mm
09:34 9.3 °C 7.8 °C 1028.3 hPa SE 7.4 km/h 4 km/h 90 % 0 mm
09:39 9.7 °C 7.7 °C 1028.3 hPa ESE 18.5 km/h 9.5 km/h 87 % 0 mm
09:44 10.1 °C 7.7 °C 1028.3 hPa ESE 11.3 km/h 6 km/h 85 % 0 mm
09:49 10.4 °C 7.3 °C 1028.3 hPa ESE 9.3 km/h 7.4 km/h 81 % 0 mm
09:54 10.7 °C 7.2 °C 1028.3 hPa ESE 9.3 km/h 6.9 km/h 79 % 0 mm
09:59 11 °C 7.1 °C 1028.3 hPa ESE 13 km/h 5.8 km/h 77 % 0 mm
10:04 11.2 °C 6.8 °C 1028.3 hPa ESE 13 km/h 6.6 km/h 74 % 0 mm
10:09 11.4 °C 6.7 °C 1028.3 hPa ESE 11.1 km/h 9 km/h 73 % 0 mm
10:14 11.5 °C 6.8 °C 1028.3 hPa East 18.5 km/h 9.2 km/h 73 % 0.25 mm
10:19 11.8 °C 6.7 °C 1028.3 hPa ENE 16.1 km/h 13.7 km/h 71 % 0.25 mm
10:24 11.9 °C 6.7 °C 1028.3 hPa ENE 11.1 km/h 6.3 km/h 70 % 0.25 mm
10:29 12.2 °C 6.9 °C 1028.3 hPa ENE 16.7 km/h 9.8 km/h 70 % 0.25 mm
10:34 12.4 °C 6.9 °C 1028.3 hPa NE 11.1 km/h 9 km/h 69 % 0.25 mm
10:39 12.6 °C 6.8 °C 1028.3 hPa NE 13 km/h 6.8 km/h 68 % 0.25 mm
10:44 12.8 °C 6.8 °C 1028.3 hPa NE 16.1 km/h 5.6 km/h 67 % 0.25 mm
10:49 12.9 °C 6.7 °C 1028.3 hPa NE 13 km/h 7.1 km/h 66 % 0.25 mm
10:54 12.9 °C 6.7 °C 1028.3 hPa NNE 18.5 km/h 10.3 km/h 66 % 0.25 mm
10:59 12.9 °C 6.4 °C 1028.3 hPa NNE 13 km/h 9.2 km/h 65 % 0.25 mm
11:04 12.9 °C 6.7 °C 1028 hPa NNE 14.8 km/h 6.8 km/h 66 % 0.25 mm
11:09 13.2 °C 6.9 °C 1028 hPa NNE 9.3 km/h 6.1 km/h 66 % 0.25 mm
11:14 13.4 °C 7 °C 1028 hPa NNE 18.5 km/h 9 km/h 65 % 0 mm
11:19 13.6 °C 7.2 °C 1028 hPa NNE 11.1 km/h 2.9 km/h 65 % 0 mm
11:24 13.8 °C 6.9 °C 1028 hPa NNE 9.3 km/h 8.2 km/h 63 % 0 mm
11:29 14 °C 7.3 °C 1027.7 hPa NE 8 km/h 9.3 km/h 64 % 0 mm
11:34 13.9 °C 6.9 °C 1027.7 hPa NE 11.3 km/h 6.6 km/h 63 % 0 mm
11:39 14 °C 7.3 °C 1027.7 hPa NE 11.1 km/h 7.2 km/h 64 % 0 mm
11:44 14.1 °C 7.2 °C 1027.7 hPa NE 7.4 km/h 3.7 km/h 63 % 0 mm
11:49 14.4 °C 6.9 °C 1027.7 hPa NE 11.1 km/h 8 km/h 61 % 0 mm
11:54 14.7 °C 6.8 °C 1027.7 hPa NNE 20.9 km/h 9.5 km/h 59 % 0 mm
11:59 14.6 °C 6.2 °C 1027.3 hPa NNE 24.1 km/h 12.7 km/h 57 % 0 mm
12:04 14.4 °C 6.3 °C 1027.3 hPa North 22.2 km/h 10.8 km/h 58 % 0 mm
12:09 14.6 °C 6.4 °C 1027.3 hPa NNE 18.5 km/h 17.7 km/h 58 % 0 mm
12:14 14.5 °C 6.6 °C 1027 hPa NNE 18.5 km/h 17.2 km/h 59 % 0 mm
12:19 14.4 °C 6.5 °C 1027 hPa NNE 25.9 km/h 17.9 km/h 59 % 0 mm
12:24 14.5 °C 6.8 °C 1027 hPa NNE 29.6 km/h 13.8 km/h 60 % 0 mm
12:29 14.4 °C 6.8 °C 1026.6 hPa NNE 19.3 km/h 13.7 km/h 60 % 0 mm
12:34 14.5 °C 6.8 °C 1026.6 hPa NNE 22.2 km/h 12.4 km/h 60 % 0 mm
12:39 14.6 °C 6.9 °C 1026.6 hPa ENE 22.2 km/h 12.7 km/h 60 % 0 mm
12:44 14.7 °C 7.1 °C 1026.6 hPa NNE 20.4 km/h 13.2 km/h 60 % 0 mm
12:49 14.8 °C 7.1 °C 1026.3 hPa NE 20.4 km/h 9.2 km/h 60 % 0 mm
12:54 14.8 °C 7.1 °C 1026.3 hPa NNE 24.1 km/h 10.6 km/h 60 % 0 mm
12:59 14.7 °C 7.1 °C 1026.3 hPa NNE 31.5 km/h 15.1 km/h 60 % 0 mm
13:04 14.7 °C 7 °C 1026.3 hPa North 31.5 km/h 15.8 km/h 60 % 0 mm
13:09 14.6 °C 7.1 °C 1026 hPa NNE 20.4 km/h 16.7 km/h 61 % 0 mm
13:14 14.6 °C 7.2 °C 1026 hPa NNE 18.5 km/h 12.1 km/h 61 % 0 mm
13:19 14.6 °C 7.2 °C 1026 hPa NE 18.5 km/h 15.3 km/h 61 % 0 mm
13:24 14.6 °C 7.4 °C 1026 hPa NE 27.8 km/h 13 km/h 62 % 0 mm
13:29 14.7 °C 7.2 °C 1025.6 hPa ENE 24.1 km/h 12.2 km/h 61 % 0 mm
13:34 14.7 °C 7.1 °C 1025.6 hPa NE 20.4 km/h 15.3 km/h 60 % 0 mm
13:39 14.9 °C 7.7 °C 1025.6 hPa NNE 16.1 km/h 10 km/h 62 % 0 mm
13:44 15 °C 7.3 °C 1025.3 hPa ENE 18.5 km/h 14.3 km/h 60 % 0 mm
13:49 14.9 °C 7.5 °C 1025.3 hPa NE 20.4 km/h 12.7 km/h 61 % 0 mm
13:54 14.9 °C 7.2 °C 1025.3 hPa NE 20.4 km/h 16.4 km/h 60 % 0 mm
13:59 14.9 °C 7.7 °C 1025.6 hPa NE 17.7 km/h 8.7 km/h 62 % 0 mm
14:04 15.1 °C 7.6 °C 1025.3 hPa NNE 20.4 km/h 15.3 km/h 61 % 0 mm
14:09 14.9 °C 7.2 °C 1025.3 hPa NE 31.5 km/h 20.6 km/h 60 % 0 mm
14:14 15 °C 7.6 °C 1025.3 hPa NE 18.5 km/h 10.5 km/h 61 % 0 mm
14:19 15.2 °C 7.3 °C 1025.3 hPa NNE 20.4 km/h 13.8 km/h 59 % 0 mm
14:24 15.2 °C 7.3 °C 1025.3 hPa NE 18.5 km/h 10.3 km/h 59 % 0 mm
14:29 15.3 °C 7.3 °C 1025.3 hPa NNE 16.7 km/h 13.7 km/h 59 % 0 mm
14:34 15.4 °C 7.4 °C 1025.3 hPa NE 13 km/h 12.4 km/h 59 % 0 mm
14:39 15.4 °C 6.9 °C 1024.9 hPa NE 25.9 km/h 10 km/h 57 % 0 mm
14:44 15.4 °C 7.2 °C 1024.9 hPa NE 16.7 km/h 11.1 km/h 58 % 0 mm
14:49 15.6 °C 7.1 °C 1024.9 hPa NNE 25.9 km/h 11.3 km/h 57 % 0 mm
14:54 15.5 °C 7 °C 1024.9 hPa NNE 13 km/h 7.9 km/h 57 % 0 mm
14:59 15.7 °C 7.2 °C 1025.3 hPa NE 22.5 km/h 10.6 km/h 57 % 0 mm
15:04 15.6 °C 7.1 °C 1024.9 hPa NE 18.5 km/h 12.1 km/h 57 % 0 mm
15:09 15.4 °C 6.7 °C 1024.9 hPa NNE 22.2 km/h 17.2 km/h 56 % 0 mm
15:14 15.4 °C 6.9 °C 1024.9 hPa NE 14.8 km/h 9.3 km/h 57 % 0 mm
15:19 15.4 °C 6.9 °C 1024.9 hPa NE 20.4 km/h 7.2 km/h 57 % 0 mm
15:24 15.5 °C 6.5 °C 1024.9 hPa NE 29.6 km/h 15.3 km/h 55 % 0 mm
15:29 15.5 °C 6.5 °C 1024.9 hPa NNE 24.1 km/h 13.2 km/h 55 % 0 mm
15:34 15.4 °C 6.4 °C 1024.9 hPa NNE 22.2 km/h 13.4 km/h 55 % 0 mm
15:39 15.4 °C 6.4 °C 1025.3 hPa NNE 25.9 km/h 9.7 km/h 55 % 0 mm
15:44 15.4 °C 6.4 °C 1024.9 hPa NNE 25.9 km/h 11.6 km/h 55 % 0 mm
15:49 15.3 °C 6.6 °C 1024.9 hPa NNE 14.8 km/h 13 km/h 56 % 0 mm
15:54 15.3 °C 6.6 °C 1024.9 hPa NNE 18.5 km/h 16.7 km/h 56 % 0 mm
15:59 15.2 °C 6.8 °C 1024.9 hPa NE 18.5 km/h 9.5 km/h 57 % 0 mm
16:04 15.2 °C 6.9 °C 1024.9 hPa NE 17.7 km/h 6.8 km/h 58 % 0 mm
16:09 15.1 °C 6.9 °C 1024.9 hPa NNE 14.8 km/h 7.4 km/h 58 % 0 mm
16:14 15.1 °C 6.8 °C 1024.9 hPa NNE 13 km/h 8 km/h 58 % 0 mm
16:19 15 °C 7.1 °C 1024.9 hPa NE 16.7 km/h 9.8 km/h 59 % 0 mm
16:24 14.8 °C 6.8 °C 1024.9 hPa NE 16.7 km/h 8.4 km/h 59 % 0 mm
16:29 14.6 °C 6.9 °C 1024.9 hPa NE 13 km/h 7.1 km/h 60 % 0 mm
16:34 14.5 °C 6.8 °C 1024.9 hPa NE 18.5 km/h 12.7 km/h 60 % 0 mm
16:39 14.4 °C 6.8 °C 1024.9 hPa NNE 13 km/h 9.2 km/h 60 % 0 mm
16:44 14.3 °C 6.9 °C 1024.6 hPa NNE 16.7 km/h 8.5 km/h 61 % 0 mm
16:49 14.2 °C 6.7 °C 1024.9 hPa NNE 14.8 km/h 10.1 km/h 61 % 0 mm
16:54 14.1 °C 6.9 °C 1024.9 hPa NNE 8 km/h 5.5 km/h 62 % 0 mm
16:59 13.9 °C 6.7 °C 1024.9 hPa NNE 13 km/h 8 km/h 62 % 0 mm
17:04 13.8 °C 6.8 °C 1024.9 hPa NNE 14.5 km/h 6.9 km/h 63 % 0 mm
17:09 13.6 °C 6.7 °C 1024.9 hPa NNE 7.4 km/h 5.8 km/h 63 % 0 mm
17:14 13.5 °C 6.8 °C 1024.9 hPa NNE 11.1 km/h 7.4 km/h 64 % 0 mm
17:19 13.4 °C 6.7 °C 1024.9 hPa NNE 11.3 km/h 7.6 km/h 64 % 0 mm
17:24 13.3 °C 6.8 °C 1024.9 hPa NNE 11.1 km/h 5.5 km/h 65 % 0 mm
17:29 13.2 °C 6.7 °C 1024.9 hPa NNE 11.1 km/h 6.4 km/h 65 % 0 mm
17:34 13 °C 6.8 °C 1024.9 hPa NNE 8 km/h 5.1 km/h 66 % 0 mm
17:39 12.9 °C 6.7 °C 1024.9 hPa NNE 7.4 km/h 6.1 km/h 66 % 0 mm
17:44 12.7 °C 6.7 °C 1024.9 hPa NNE 7.4 km/h 5.6 km/h 67 % 0 mm
17:49 12.6 °C 6.7 °C 1024.9 hPa NNE 11.3 km/h 6.3 km/h 67 % 0 mm
17:54 12.5 °C 6.6 °C 1025.3 hPa NNE 7.4 km/h 7.6 km/h 67 % 0 mm
17:59 12.4 °C 6.7 °C 1025.3 hPa NNE 5.6 km/h 4.8 km/h 68 % 0 mm
18:04 12.3 °C 6.6 °C 1025.3 hPa NNE 9.7 km/h 6.8 km/h 68 % 0 mm
18:09 12.3 °C 6.6 °C 1025.3 hPa NNE 7.4 km/h 6.4 km/h 68 % 0 mm
18:14 12.2 °C 6.5 °C 1025.3 hPa NNE 7.4 km/h 6 km/h 68 % 0 mm
18:19 12.1 °C 6.6 °C 1025.3 hPa NNE 7.4 km/h 4.8 km/h 69 % 0 mm
18:24 12.1 °C 6.6 °C 1025.3 hPa NNE 9.3 km/h 4 km/h 69 % 0 mm
18:29 12 °C 6.5 °C 1025.3 hPa NNE 7.4 km/h 3.5 km/h 69 % 0 mm
18:34 11.8 °C 6.6 °C 1025.3 hPa NNE 5.6 km/h 1.9 km/h 70 % 0 mm
18:39 11.7 °C 6.4 °C 1025.3 hPa NNE 5.6 km/h 2.7 km/h 70 % 0 mm
18:44 11.6 °C 6.3 °C 1025.3 hPa NNE 3.7 km/h 1.4 km/h 70 % 0 mm
18:49 11.5 °C 6.4 °C 1025.3 hPa NNE 7.4 km/h 2.9 km/h 71 % 0 mm
18:54 11.4 °C 6.3 °C 1025.3 hPa NNE 5.6 km/h 4 km/h 71 % 0 mm
18:59 11.3 °C 6.4 °C 1025.3 hPa NNE 7.4 km/h 3.5 km/h 72 % 0 mm
19:04 11.3 °C 6.4 °C 1025.3 hPa NNE 5.6 km/h 2.3 km/h 72 % 0 mm
19:09 11.2 °C 6.3 °C 1024.9 hPa NNE 5.6 km/h 3.2 km/h 72 % 0 mm
19:14 11.2 °C 6.6 °C 1024.9 hPa NNE 5.6 km/h 3.2 km/h 73 % 0 mm
19:19 11.2 °C 6.6 °C 1025.3 hPa NNE 11.1 km/h 3.4 km/h 73 % 0 mm
19:24 11.3 °C 6.6 °C 1025.3 hPa NNE 5.6 km/h 5 km/h 73 % 0 mm
19:29 11.3 °C 6.6 °C 1025.3 hPa NNE 9.7 km/h 7.9 km/h 73 % 0 mm
19:34 11.4 °C 6.7 °C 1025.3 hPa NNE 9.7 km/h 6.9 km/h 73 % 0 mm
19:39 11.5 °C 6.6 °C 1025.3 hPa NNE 14.8 km/h 9 km/h 72 % 0 mm
19:44 11.6 °C 6.7 °C 1025.3 hPa NNE 18.5 km/h 8.2 km/h 72 % 0 mm
19:49 11.7 °C 6.8 °C 1025.3 hPa NNE 9.7 km/h 10 km/h 72 % 0 mm
19:54 11.8 °C 6.7 °C 1025.3 hPa NNE 18.5 km/h 9.2 km/h 71 % 0 mm
19:59 11.8 °C 6.7 °C 1025.3 hPa NNE 13 km/h 9.7 km/h 71 % 0 mm
20:04 11.9 °C 6.8 °C 1025.3 hPa NNE 13 km/h 10.3 km/h 71 % 0 mm
20:09 11.9 °C 6.8 °C 1025.3 hPa NNE 11.1 km/h 8.9 km/h 71 % 0 mm
20:14 11.9 °C 6.8 °C 1025.3 hPa NNE 18.5 km/h 8.7 km/h 71 % 0 mm
20:19 11.9 °C 6.8 °C 1025.3 hPa NNE 14.8 km/h 10.3 km/h 71 % 0 mm
20:24 11.9 °C 6.8 °C 1025.3 hPa NNE 12.9 km/h 9.2 km/h 71 % 0 mm
20:29 11.9 °C 6.8 °C 1025.3 hPa NNE 16.7 km/h 10.6 km/h 71 % 0 mm
20:34 11.9 °C 6.8 °C 1025.3 hPa NNE 16.7 km/h 11.7 km/h 71 % 0 mm
20:39 11.9 °C 6.8 °C 1025.3 hPa NNE 22.2 km/h 9.5 km/h 71 % 0 mm
20:44 11.9 °C 6.8 °C 1025.3 hPa NNE 18.5 km/h 8.9 km/h 71 % 0 mm
20:49 11.9 °C 6.8 °C 1025.3 hPa NNE 16.1 km/h 10 km/h 71 % 0 mm
20:54 11.9 °C 6.8 °C 1025.3 hPa NNE 16.7 km/h 11.6 km/h 71 % 0 mm
20:59 11.8 °C 6.7 °C 1025.3 hPa NNE 16.7 km/h 10.3 km/h 71 % 0 mm
21:04 11.7 °C 6.6 °C 1025.3 hPa NNE 16.7 km/h 10.3 km/h 71 % 0 mm
21:09 11.6 °C 6.5 °C 1025.3 hPa NNE 13 km/h 10.3 km/h 71 % 0 mm
21:14 11.5 °C 6.6 °C 1025.3 hPa NNE 16.7 km/h 12.4 km/h 72 % 0 mm
21:19 11.4 °C 6.6 °C 1025.3 hPa NNE 14.8 km/h 10 km/h 72 % 0 mm
21:24 11.4 °C 6.5 °C 1024.9 hPa NNE 13 km/h 9.2 km/h 72 % 0 mm
21:29 11.3 °C 6.7 °C 1024.9 hPa NNE 14.5 km/h 12.4 km/h 73 % 0 mm
21:34 11.3 °C 6.6 °C 1024.9 hPa NNE 13 km/h 9.8 km/h 73 % 0 mm
21:39 11.2 °C 6.6 °C 1024.9 hPa NNE 11.1 km/h 8 km/h 73 % 0 mm
21:44 11.2 °C 6.6 °C 1024.6 hPa NNE 8 km/h 6 km/h 73 % 0 mm
21:49 11.1 °C 6.4 °C 1024.6 hPa NNE 7.4 km/h 5 km/h 73 % 0 mm
21:54 11.1 °C 6.6 °C 1024.6 hPa NNE 7.4 km/h 9.5 km/h 74 % 0 mm
21:59 11.1 °C 6.7 °C 1024.6 hPa NNE 14.8 km/h 6.6 km/h 74 % 0 mm
22:04 11.1 °C 6.7 °C 1024.6 hPa NNE 14.8 km/h 7.9 km/h 74 % 0 mm
22:09 11.2 °C 6.7 °C 1024.6 hPa NNE 16.7 km/h 10.6 km/h 74 % 0 mm
22:14 11.3 °C 6.7 °C 1024.6 hPa NNE 16.7 km/h 9.7 km/h 73 % 0 mm
22:19 11.6 °C 6.7 °C 1024.6 hPa NNE 18.5 km/h 7.4 km/h 72 % 0 mm
22:24 11.6 °C 6.7 °C 1024.3 hPa NNE 14.8 km/h 8.2 km/h 72 % 0 mm
22:29 11.7 °C 6.8 °C 1024.3 hPa NNE 14.8 km/h 10.5 km/h 72 % 0 mm
22:34 11.8 °C 6.7 °C 1024.3 hPa NNE 18.5 km/h 12.4 km/h 71 % 0 mm
22:39 11.8 °C 6.7 °C 1024.3 hPa NNE 20.4 km/h 9.7 km/h 71 % 0 mm
22:44 11.8 °C 6.7 °C 1024.3 hPa NNE 24.1 km/h 15.9 km/h 71 % 0 mm
22:49 11.8 °C 6.7 °C 1024.3 hPa NNE 22.5 km/h 16.1 km/h 71 % 0 mm
22:54 11.9 °C 6.8 °C 1023.9 hPa NNE 16.7 km/h 12.4 km/h 71 % 0 mm
22:59 11.9 °C 6.8 °C 1024.3 hPa NNE 18.5 km/h 16.3 km/h 71 % 0 mm
23:04 12 °C 6.7 °C 1023.9 hPa North 18.5 km/h 14.6 km/h 70 % 0 mm
23:09 12 °C 6.7 °C 1023.9 hPa NNE 20.9 km/h 17.9 km/h 70 % 0 mm
23:14 12.1 °C 6.8 °C 1023.9 hPa North 24.1 km/h 19.5 km/h 70 % 0 mm
23:19 12.1 °C 6.7 °C 1023.9 hPa North 31.5 km/h 18.3 km/h 70 % 0 mm
23:24 12.1 °C 6.7 °C 1023.9 hPa NNE 24.1 km/h 15 km/h 70 % 0 mm
23:29 12 °C 6.7 °C 1023.6 hPa NNE 25.9 km/h 18.3 km/h 70 % 0 mm
23:34 12 °C 6.7 °C 1023.6 hPa NNE 20.9 km/h 19 km/h 70 % 0 mm
23:39 12.1 °C 6.7 °C 1023.6 hPa NNE 29.6 km/h 18 km/h 70 % 0 mm
23:44 12.1 °C 6.7 °C 1023.6 hPa NNE 24.1 km/h 20.1 km/h 70 % 0 mm
23:49 12.1 °C 6.8 °C 1023.6 hPa NNE 27.8 km/h 17.5 km/h 70 % 0 mm
23:54 12.1 °C 6.8 °C 1023.6 hPa North 22.2 km/h 19.6 km/h 70 % 0 mm
23:59 12.1 °C 6.8 °C 1023.6 hPa NNE 25.9 km/h 15.6 km/h 70 % 0 mm
Ararat Weather
Compliments of Weather Underground - 2 mb
Click here to send mail.


ABOUT

Live weather data from Ararat, Victoria, Australia, 3377
Data uploaded from Cumulus every 5 minutes to Weather Underground.
This site then downloads the raw data for formatting and display.
Metric and imperial data can be displayed. Graphs and historical data available.
Includes Sun and Moon times and rain image live from BOM.

Check out Ararat Weather on Facebook, Twitter and Google +

Help support ongoing costs by checking out the ads





Follow @AraratWeather